sensor_id;sensor_type;location;lat;lon;timestamp;temperature;humidity
25208;DHT22;13153;52.316;21.166;2024-01-27T00:01:43;2.90;99.90
25208;DHT22;13153;52.316;21.166;2024-01-27T00:04:09;2.90;99.90
25208;DHT22;13153;52.316;21.166;2024-01-27T00:06:35;3.00;99.90
25208;DHT22;13153;52.316;21.166;2024-01-27T00:09:01;3.00;99.90
25208;DHT22;13153;52.316;21.166;2024-01-27T00:11:26;3.10;99.90
25208;DHT22;13153;52.316;21.166;2024-01-27T00:13:52;3.10;99.90
25208;DHT22;13153;52.316;21.166;2024-01-27T00:16:18;3.20;99.90
25208;DHT22;13153;52.316;21.166;2024-01-27T00:18:45;3.30;99.90
25208;DHT22;13153;52.316;21.166;2024-01-27T00:21:11;3.30;99.90
25208;DHT22;13153;52.316;21.166;2024-01-27T00:23:37;3.40;99.90
25208;DHT22;13153;52.316;21.166;2024-01-27T00:26:03;3.40;99.90
25208;DHT22;13153;52.316;21.166;2024-01-27T00:28:30;3.50;99.90
25208;DHT22;13153;52.316;21.166;2024-01-27T00:30:55;3.50;99.90
25208;DHT22;13153;52.316;21.166;2024-01-27T00:33:22;3.50;99.90
25208;DHT22;13153;52.316;21.166;2024-01-27T00:35:48;3.60;99.90
25208;DHT22;13153;52.316;21.166;2024-01-27T00:38:13;3.60;99.90
25208;DHT22;13153;52.316;21.166;2024-01-27T00:40:40;3.60;99.90
25208;DHT22;13153;52.316;21.166;2024-01-27T00:43:06;3.60;99.90
25208;DHT22;13153;52.316;21.166;2024-01-27T00:45:32;3.70;99.90
25208;DHT22;13153;52.316;21.166;2024-01-27T00:47:57;3.70;99.90
25208;DHT22;13153;52.316;21.166;2024-01-27T00:50:23;3.70;99.90
25208;DHT22;13153;52.316;21.166;2024-01-27T00:52:49;3.70;99.90
25208;DHT22;13153;52.316;21.166;2024-01-27T00:55:15;3.70;99.90
25208;DHT22;13153;52.316;21.166;2024-01-27T00:57:41;3.70;99.90
25208;DHT22;13153;52.316;21.166;2024-01-27T01:00:08;3.70;99.90
25208;DHT22;13153;52.316;21.166;2024-01-27T01:02:35;3.80;99.90
25208;DHT22;13153;52.316;21.166;2024-01-27T01:05:02;3.70;99.90
25208;DHT22;13153;52.316;21.166;2024-01-27T01:07:31;3.70;99.90
25208;DHT22;13153;52.316;21.166;2024-01-27T01:09:57;3.80;99.90
25208;DHT22;13153;52.316;21.166;2024-01-27T01:12:24;3.80;99.90
25208;DHT22;13153;52.316;21.166;2024-01-27T01:14:53;3.70;99.90
25208;DHT22;13153;52.316;21.166;2024-01-27T01:17:19;3.70;99.90
25208;DHT22;13153;52.316;21.166;2024-01-27T01:19:44;3.70;99.90
25208;DHT22;13153;52.316;21.166;2024-01-27T01:22:10;3.70;99.90
25208;DHT22;13153;52.316;21.166;2024-01-27T01:24:36;3.70;99.90
25208;DHT22;13153;52.316;21.166;2024-01-27T01:27:02;3.70;99.90
25208;DHT22;13153;52.316;21.166;2024-01-27T01:29:28;3.70;99.90
25208;DHT22;13153;52.316;21.166;2024-01-27T01:31:54;3.70;99.90
25208;DHT22;13153;52.316;21.166;2024-01-27T01:34:20;3.70;99.90
25208;DHT22;13153;52.316;21.166;2024-01-27T01:36:46;3.70;99.90
25208;DHT22;13153;52.316;21.166;2024-01-27T01:39:13;3.70;99.90
25208;DHT22;13153;52.316;21.166;2024-01-27T01:41:40;3.70;99.90
25208;DHT22;13153;52.316;21.166;2024-01-27T01:44:06;3.70;99.90
25208;DHT22;13153;52.316;21.166;2024-01-27T01:46:33;3.70;99.90
25208;DHT22;13153;52.316;21.166;2024-01-27T01:49:00;3.70;99.90
25208;DHT22;13153;52.316;21.166;2024-01-27T01:51:27;3.70;99.90
25208;DHT22;13153;52.316;21.166;2024-01-27T01:53:57;3.70;99.90
25208;DHT22;13153;52.316;21.166;2024-01-27T01:56:24;3.70;99.90
25208;DHT22;13153;52.316;21.166;2024-01-27T01:58:50;3.70;99.90
25208;DHT22;13153;52.316;21.166;2024-01-27T02:01:18;3.60;99.90
25208;DHT22;13153;52.316;21.166;2024-01-27T02:03:53;3.60;99.90
25208;DHT22;13153;52.316;21.166;2024-01-27T02:06:19;3.60;99.90
25208;DHT22;13153;52.316;21.166;2024-01-27T02:08:45;3.60;99.90
25208;DHT22;13153;52.316;21.166;2024-01-27T02:11:11;3.60;99.90
25208;DHT22;13153;52.316;21.166;2024-01-27T02:13:37;3.60;99.90
25208;DHT22;13153;52.316;21.166;2024-01-27T02:16:03;3.60;99.90
25208;DHT22;13153;52.316;21.166;2024-01-27T02:18:29;3.60;99.90
25208;DHT22;13153;52.316;21.166;2024-01-27T02:20:55;3.60;99.90
25208;DHT22;13153;52.316;21.166;2024-01-27T02:23:21;3.60;99.90
25208;DHT22;13153;52.316;21.166;2024-01-27T02:25:47;3.70;99.90
25208;DHT22;13153;52.316;21.166;2024-01-27T02:28:12;3.70;99.90
25208;DHT22;13153;52.316;21.166;2024-01-27T02:30:39;3.70;99.90
25208;DHT22;13153;52.316;21.166;2024-01-27T02:33:05;3.70;99.90
25208;DHT22;13153;52.316;21.166;2024-01-27T02:35:31;3.70;99.90
25208;DHT22;13153;52.316;21.166;2024-01-27T02:37:56;3.70;99.90
25208;DHT22;13153;52.316;21.166;2024-01-27T02:40:22;3.70;99.90
25208;DHT22;13153;52.316;21.166;2024-01-27T02:42:48;3.70;99.90
25208;DHT22;13153;52.316;21.166;2024-01-27T02:45:14;3.70;99.90
25208;DHT22;13153;52.316;21.166;2024-01-27T02:47:39;3.80;99.90
25208;DHT22;13153;52.316;21.166;2024-01-27T02:50:06;3.80;99.90
25208;DHT22;13153;52.316;21.166;2024-01-27T02:52:32;3.80;99.90
25208;DHT22;13153;52.316;21.166;2024-01-27T02:54:58;3.80;99.90
25208;DHT22;13153;52.316;21.166;2024-01-27T02:57:24;3.80;99.90
25208;DHT22;13153;52.316;21.166;2024-01-27T02:59:50;3.80;99.90
25208;DHT22;13153;52.316;21.166;2024-01-27T03:02:15;3.80;99.90
25208;DHT22;13153;52.316;21.166;2024-01-27T03:04:41;3.80;99.90
25208;DHT22;13153;52.316;21.166;2024-01-27T03:07:08;3.80;99.90
25208;DHT22;13153;52.316;21.166;2024-01-27T03:09:33;3.80;99.90
25208;DHT22;13153;52.316;21.166;2024-01-27T03:11:59;3.80;99.90
25208;DHT22;13153;52.316;21.166;2024-01-27T03:14:25;3.80;99.90
25208;DHT22;13153;52.316;21.166;2024-01-27T03:16:52;3.80;99.90
25208;DHT22;13153;52.316;21.166;2024-01-27T03:19:17;3.80;99.90
25208;DHT22;13153;52.316;21.166;2024-01-27T03:21:43;3.80;99.90
25208;DHT22;13153;52.316;21.166;2024-01-27T03:24:09;3.80;99.90
25208;DHT22;13153;52.316;21.166;2024-01-27T03:26:35;3.80;99.90
25208;DHT22;13153;52.316;21.166;2024-01-27T03:29:00;3.80;99.90
25208;DHT22;13153;52.316;21.166;2024-01-27T03:31:33;3.80;99.90
25208;DHT22;13153;52.316;21.166;2024-01-27T03:34:02;3.80;99.90
25208;DHT22;13153;52.316;21.166;2024-01-27T03:36:29;3.80;99.90
25208;DHT22;13153;52.316;21.166;2024-01-27T03:38:56;3.80;99.90
25208;DHT22;13153;52.316;21.166;2024-01-27T03:41:23;3.80;99.90
25208;DHT22;13153;52.316;21.166;2024-01-27T03:43:49;3.80;99.90
25208;DHT22;13153;52.316;21.166;2024-01-27T03:46:15;3.90;99.90
25208;DHT22;13153;52.316;21.166;2024-01-27T03:48:41;3.80;99.90
25208;DHT22;13153;52.316;21.166;2024-01-27T03:51:07;3.80;99.90
25208;DHT22;13153;52.316;21.166;2024-01-27T03:53:33;3.90;99.90
25208;DHT22;13153;52.316;21.166;2024-01-27T03:55:59;3.90;99.90
25208;DHT22;13153;52.316;21.166;2024-01-27T03:58:28;3.90;99.90
25208;DHT22;13153;52.316;21.166;2024-01-27T04:00:54;3.90;99.90
25208;DHT22;13153;52.316;21.166;2024-01-27T04:03:20;3.90;99.90
25208;DHT22;13153;52.316;21.166;2024-01-27T04:05:46;3.90;99.90
25208;DHT22;13153;52.316;21.166;2024-01-27T04:08:12;3.90;99.90
25208;DHT22;13153;52.316;21.166;2024-01-27T04:10:37;3.90;99.90
25208;DHT22;13153;52.316;21.166;2024-01-27T04:13:03;3.90;99.90
25208;DHT22;13153;52.316;21.166;2024-01-27T04:15:29;3.90;99.90
25208;DHT22;13153;52.316;21.166;2024-01-27T04:17:55;3.90;99.90
25208;DHT22;13153;52.316;21.166;2024-01-27T04:20:21;3.90;99.90
25208;DHT22;13153;52.316;21.166;2024-01-27T04:22:47;3.90;99.90
25208;DHT22;13153;52.316;21.166;2024-01-27T04:25:13;3.90;99.90
25208;DHT22;13153;52.316;21.166;2024-01-27T04:27:40;3.90;99.90
25208;DHT22;13153;52.316;21.166;2024-01-27T04:30:11;3.90;99.90
25208;DHT22;13153;52.316;21.166;2024-01-27T04:32:38;3.90;99.90
25208;DHT22;13153;52.316;21.166;2024-01-27T04:35:04;3.90;99.90
25208;DHT22;13153;52.316;21.166;2024-01-27T04:37:34;4.00;99.90
25208;DHT22;13153;52.316;21.166;2024-01-27T04:39:59;4.00;99.90
25208;DHT22;13153;52.316;21.166;2024-01-27T04:42:25;3.90;99.90
25208;DHT22;13153;52.316;21.166;2024-01-27T04:44:51;4.00;99.90
25208;DHT22;13153;52.316;21.166;2024-01-27T04:47:17;4.00;99.90
25208;DHT22;13153;52.316;21.166;2024-01-27T04:49:43;4.00;99.90
25208;DHT22;13153;52.316;21.166;2024-01-27T04:52:09;4.00;99.90
25208;DHT22;13153;52.316;21.166;2024-01-27T04:54:34;4.00;99.90
25208;DHT22;13153;52.316;21.166;2024-01-27T04:57:00;4.00;99.90
25208;DHT22;13153;52.316;21.166;2024-01-27T04:59:26;3.90;99.90
25208;DHT22;13153;52.316;21.166;2024-01-27T05:01:51;4.00;99.90
25208;DHT22;13153;52.316;21.166;2024-01-27T05:04:17;4.00;99.90
25208;DHT22;13153;52.316;21.166;2024-01-27T05:06:46;3.90;99.90
25208;DHT22;13153;52.316;21.166;2024-01-27T05:09:12;3.90;99.90
25208;DHT22;13153;52.316;21.166;2024-01-27T05:11:38;3.90;99.90
25208;DHT22;13153;52.316;21.166;2024-01-27T05:14:04;3.90;99.90
25208;DHT22;13153;52.316;21.166;2024-01-27T05:16:30;4.00;99.90
25208;DHT22;13153;52.316;21.166;2024-01-27T05:18:57;4.00;99.90
25208;DHT22;13153;52.316;21.166;2024-01-27T05:21:23;3.90;99.90
25208;DHT22;13153;52.316;21.166;2024-01-27T05:23:48;3.90;99.90
25208;DHT22;13153;52.316;21.166;2024-01-27T05:26:14;3.90;99.90
25208;DHT22;13153;52.316;21.166;2024-01-27T05:28:40;3.90;99.90
25208;DHT22;13153;52.316;21.166;2024-01-27T05:31:08;3.90;99.90
25208;DHT22;13153;52.316;21.166;2024-01-27T05:33:35;3.90;99.90
25208;DHT22;13153;52.316;21.166;2024-01-27T05:36:02;3.90;99.90
25208;DHT22;13153;52.316;21.166;2024-01-27T05:38:27;3.90;99.90
25208;DHT22;13153;52.316;21.166;2024-01-27T05:40:55;4.00;99.90
25208;DHT22;13153;52.316;21.166;2024-01-27T05:43:21;3.90;99.90
25208;DHT22;13153;52.316;21.166;2024-01-27T05:45:48;3.90;99.90
25208;DHT22;13153;52.316;21.166;2024-01-27T05:48:14;3.90;99.90
25208;DHT22;13153;52.316;21.166;2024-01-27T05:50:42;3.90;99.90
25208;DHT22;13153;52.316;21.166;2024-01-27T05:53:09;3.90;99.90
25208;DHT22;13153;52.316;21.166;2024-01-27T05:55:34;3.80;99.90
25208;DHT22;13153;52.316;21.166;2024-01-27T05:58:00;3.80;99.90
25208;DHT22;13153;52.316;21.166;2024-01-27T06:00:26;3.80;99.90
25208;DHT22;13153;52.316;21.166;2024-01-27T06:02:52;3.80;99.90
25208;DHT22;13153;52.316;21.166;2024-01-27T06:05:18;3.90;99.90
25208;DHT22;13153;52.316;21.166;2024-01-27T06:07:44;3.90;99.90
25208;DHT22;13153;52.316;21.166;2024-01-27T06:10:11;3.90;99.90
25208;DHT22;13153;52.316;21.166;2024-01-27T06:12:38;3.90;99.90
25208;DHT22;13153;52.316;21.166;2024-01-27T06:15:05;3.90;99.90
25208;DHT22;13153;52.316;21.166;2024-01-27T06:17:31;3.90;99.90
25208;DHT22;13153;52.316;21.166;2024-01-27T06:19:57;3.90;99.90
25208;DHT22;13153;52.316;21.166;2024-01-27T06:22:22;3.90;99.90
25208;DHT22;13153;52.316;21.166;2024-01-27T06:24:48;3.80;99.90
25208;DHT22;13153;52.316;21.166;2024-01-27T06:27:14;3.90;99.90
25208;DHT22;13153;52.316;21.166;2024-01-27T06:29:40;3.80;99.90
25208;DHT22;13153;52.316;21.166;2024-01-27T06:32:07;3.80;99.90
25208;DHT22;13153;52.316;21.166;2024-01-27T06:34:33;3.80;99.90
25208;DHT22;13153;52.316;21.166;2024-01-27T06:36:59;3.80;99.90
25208;DHT22;13153;52.316;21.166;2024-01-27T06:39:25;3.80;99.90
25208;DHT22;13153;52.316;21.166;2024-01-27T06:41:51;3.80;99.90
25208;DHT22;13153;52.316;21.166;2024-01-27T06:44:17;3.80;99.90
25208;DHT22;13153;52.316;21.166;2024-01-27T06:46:42;3.80;99.90
25208;DHT22;13153;52.316;21.166;2024-01-27T06:49:10;3.80;99.90
25208;DHT22;13153;52.316;21.166;2024-01-27T06:51:36;3.70;99.90
25208;DHT22;13153;52.316;21.166;2024-01-27T06:54:01;3.70;99.90
25208;DHT22;13153;52.316;21.166;2024-01-27T06:56:27;3.70;99.90
25208;DHT22;13153;52.316;21.166;2024-01-27T06:58:53;3.70;99.90
25208;DHT22;13153;52.316;21.166;2024-01-27T07:01:18;3.70;99.90
25208;DHT22;13153;52.316;21.166;2024-01-27T07:03:44;3.70;99.90
25208;DHT22;13153;52.316;21.166;2024-01-27T07:06:10;3.60;99.90
25208;DHT22;13153;52.316;21.166;2024-01-27T07:08:36;3.60;99.90
25208;DHT22;13153;52.316;21.166;2024-01-27T07:11:02;3.50;99.90
25208;DHT22;13153;52.316;21.166;2024-01-27T07:13:28;3.50;99.90
25208;DHT22;13153;52.316;21.166;2024-01-27T07:15:56;3.60;99.90
25208;DHT22;13153;52.316;21.166;2024-01-27T07:18:23;3.60;99.90
25208;DHT22;13153;52.316;21.166;2024-01-27T07:20:50;3.60;99.90
25208;DHT22;13153;52.316;21.166;2024-01-27T07:23:16;3.60;99.90
25208;DHT22;13153;52.316;21.166;2024-01-27T07:25:43;3.70;99.90
25208;DHT22;13153;52.316;21.166;2024-01-27T07:28:10;3.60;99.90
25208;DHT22;13153;52.316;21.166;2024-01-27T07:30:36;3.60;99.90
25208;DHT22;13153;52.316;21.166;2024-01-27T07:33:02;3.60;99.90
25208;DHT22;13153;52.316;21.166;2024-01-27T07:35:28;3.60;99.90
25208;DHT22;13153;52.316;21.166;2024-01-27T07:37:54;3.70;99.90
25208;DHT22;13153;52.316;21.166;2024-01-27T07:40:20;3.60;99.90
25208;DHT22;13153;52.316;21.166;2024-01-27T07:42:46;3.60;99.90
25208;DHT22;13153;52.316;21.166;2024-01-27T07:45:11;3.60;99.90
25208;DHT22;13153;52.316;21.166;2024-01-27T07:47:37;3.60;99.90
25208;DHT22;13153;52.316;21.166;2024-01-27T07:50:03;3.50;99.90
25208;DHT22;13153;52.316;21.166;2024-01-27T07:52:29;3.50;99.90
25208;DHT22;13153;52.316;21.166;2024-01-27T07:54:55;3.60;99.90
25208;DHT22;13153;52.316;21.166;2024-01-27T07:57:21;3.50;99.90
25208;DHT22;13153;52.316;21.166;2024-01-27T07:59:47;3.60;99.90
25208;DHT22;13153;52.316;21.166;2024-01-27T08:02:13;3.60;99.90
25208;DHT22;13153;52.316;21.166;2024-01-27T08:04:39;3.60;99.90
25208;DHT22;13153;52.316;21.166;2024-01-27T08:07:04;3.70;99.90
25208;DHT22;13153;52.316;21.166;2024-01-27T08:09:35;3.70;99.90
25208;DHT22;13153;52.316;21.166;2024-01-27T08:12:01;3.70;99.90
25208;DHT22;13153;52.316;21.166;2024-01-27T08:14:30;3.70;99.90
25208;DHT22;13153;52.316;21.166;2024-01-27T08:16:56;3.80;99.90
25208;DHT22;13153;52.316;21.166;2024-01-27T08:19:23;3.70;99.90
25208;DHT22;13153;52.316;21.166;2024-01-27T08:21:49;3.80;99.90
25208;DHT22;13153;52.316;21.166;2024-01-27T08:24:15;3.80;99.90
25208;DHT22;13153;52.316;21.166;2024-01-27T08:26:41;3.90;99.90
25208;DHT22;13153;52.316;21.166;2024-01-27T08:29:08;3.90;99.90
25208;DHT22;13153;52.316;21.166;2024-01-27T08:31:35;3.90;99.90
25208;DHT22;13153;52.316;21.166;2024-01-27T08:34:00;3.90;99.90
25208;DHT22;13153;52.316;21.166;2024-01-27T08:36:26;3.90;99.90
25208;DHT22;13153;52.316;21.166;2024-01-27T08:38:52;3.90;99.90
25208;DHT22;13153;52.316;21.166;2024-01-27T08:41:18;3.90;99.90
25208;DHT22;13153;52.316;21.166;2024-01-27T08:43:43;3.90;99.90
25208;DHT22;13153;52.316;21.166;2024-01-27T08:46:09;3.90;99.90
25208;DHT22;13153;52.316;21.166;2024-01-27T08:48:38;3.80;99.90
25208;DHT22;13153;52.316;21.166;2024-01-27T08:51:04;3.80;99.90
25208;DHT22;13153;52.316;21.166;2024-01-27T08:53:30;3.90;99.90
25208;DHT22;13153;52.316;21.166;2024-01-27T08:55:55;3.90;99.90
25208;DHT22;13153;52.316;21.166;2024-01-27T08:58:21;3.90;99.90
25208;DHT22;13153;52.316;21.166;2024-01-27T09:00:47;4.00;99.90
25208;DHT22;13153;52.316;21.166;2024-01-27T09:03:12;3.90;99.90
25208;DHT22;13153;52.316;21.166;2024-01-27T09:05:39;3.90;99.90
25208;DHT22;13153;52.316;21.166;2024-01-27T09:08:07;4.00;99.90
25208;DHT22;13153;52.316;21.166;2024-01-27T09:10:33;4.00;99.90
25208;DHT22;13153;52.316;21.166;2024-01-27T09:12:59;4.00;99.90
25208;DHT22;13153;52.316;21.166;2024-01-27T09:15:24;4.00;99.90
25208;DHT22;13153;52.316;21.166;2024-01-27T09:17:50;4.00;99.90
25208;DHT22;13153;52.316;21.166;2024-01-27T09:20:16;4.00;99.90
25208;DHT22;13153;52.316;21.166;2024-01-27T09:22:42;4.00;99.90
25208;DHT22;13153;52.316;21.166;2024-01-27T09:25:10;4.00;99.90
25208;DHT22;13153;52.316;21.166;2024-01-27T09:27:36;4.10;99.90
25208;DHT22;13153;52.316;21.166;2024-01-27T09:30:02;4.00;99.90
25208;DHT22;13153;52.316;21.166;2024-01-27T09:32:28;4.10;99.90
25208;DHT22;13153;52.316;21.166;2024-01-27T09:34:54;4.00;99.90
25208;DHT22;13153;52.316;21.166;2024-01-27T09:37:20;4.10;99.90
25208;DHT22;13153;52.316;21.166;2024-01-27T09:39:45;4.10;99.90
25208;DHT22;13153;52.316;21.166;2024-01-27T09:42:13;4.10;99.90
25208;DHT22;13153;52.316;21.166;2024-01-27T09:44:45;4.10;99.90
25208;DHT22;13153;52.316;21.166;2024-01-27T09:47:17;4.10;99.90
25208;DHT22;13153;52.316;21.166;2024-01-27T09:49:45;4.10;99.90
25208;DHT22;13153;52.316;21.166;2024-01-27T09:52:12;4.10;99.90
25208;DHT22;13153;52.316;21.166;2024-01-27T09:54:40;4.10;99.90
25208;DHT22;13153;52.316;21.166;2024-01-27T09:57:08;4.10;99.90
25208;DHT22;13153;52.316;21.166;2024-01-27T09:59:39;4.20;99.90
25208;DHT22;13153;52.316;21.166;2024-01-27T10:02:11;4.20;99.90
25208;DHT22;13153;52.316;21.166;2024-01-27T10:04:41;4.30;99.90
25208;DHT22;13153;52.316;21.166;2024-01-27T10:07:07;4.30;99.90
25208;DHT22;13153;52.316;21.166;2024-01-27T10:09:33;4.30;99.90
25208;DHT22;13153;52.316;21.166;2024-01-27T10:12:01;4.40;99.90
25208;DHT22;13153;52.316;21.166;2024-01-27T10:14:40;4.40;99.90
25208;DHT22;13153;52.316;21.166;2024-01-27T10:17:10;4.40;99.90
25208;DHT22;13153;52.316;21.166;2024-01-27T10:19:36;4.40;99.90
25208;DHT22;13153;52.316;21.166;2024-01-27T10:22:02;4.40;99.90
25208;DHT22;13153;52.316;21.166;2024-01-27T10:24:31;4.40;99.90
25208;DHT22;13153;52.316;21.166;2024-01-27T10:27:03;4.40;99.90
25208;DHT22;13153;52.316;21.166;2024-01-27T10:29:33;4.40;99.90
25208;DHT22;13153;52.316;21.166;2024-01-27T10:32:10;4.40;99.90
25208;DHT22;13153;52.316;21.166;2024-01-27T10:34:37;4.40;99.90
25208;DHT22;13153;52.316;21.166;2024-01-27T10:37:02;4.40;99.90
25208;DHT22;13153;52.316;21.166;2024-01-27T10:39:28;4.50;99.90
25208;DHT22;13153;52.316;21.166;2024-01-27T10:41:54;4.50;99.90
25208;DHT22;13153;52.316;21.166;2024-01-27T10:44:20;4.50;99.90
25208;DHT22;13153;52.316;21.166;2024-01-27T10:46:48;4.50;99.90
25208;DHT22;13153;52.316;21.166;2024-01-27T10:49:16;4.60;99.90
25208;DHT22;13153;52.316;21.166;2024-01-27T10:51:54;4.60;99.90
25208;DHT22;13153;52.316;21.166;2024-01-27T10:54:28;4.60;99.90
25208;DHT22;13153;52.316;21.166;2024-01-27T10:56:58;4.60;99.90
25208;DHT22;13153;52.316;21.166;2024-01-27T10:59:26;4.60;99.90
25208;DHT22;13153;52.316;21.166;2024-01-27T11:01:54;4.50;99.90
25208;DHT22;13153;52.316;21.166;2024-01-27T11:04:20;4.50;99.90
25208;DHT22;13153;52.316;21.166;2024-01-27T11:06:49;4.50;99.90
25208;DHT22;13153;52.316;21.166;2024-01-27T11:09:17;4.40;99.90
25208;DHT22;13153;52.316;21.166;2024-01-27T11:11:45;4.40;99.90
25208;DHT22;13153;52.316;21.166;2024-01-27T11:14:12;4.40;99.90
25208;DHT22;13153;52.316;21.166;2024-01-27T11:16:38;4.40;99.90
25208;DHT22;13153;52.316;21.166;2024-01-27T11:19:10;4.40;99.90
25208;DHT22;13153;52.316;21.166;2024-01-27T11:21:37;4.50;99.90
25208;DHT22;13153;52.316;21.166;2024-01-27T11:24:16;4.50;99.90
25208;DHT22;13153;52.316;21.166;2024-01-27T11:26:44;4.50;99.90
25208;DHT22;13153;52.316;21.166;2024-01-27T11:29:10;4.50;99.90
25208;DHT22;13153;52.316;21.166;2024-01-27T11:31:45;4.50;99.90
25208;DHT22;13153;52.316;21.166;2024-01-27T11:34:11;4.60;99.90
25208;DHT22;13153;52.316;21.166;2024-01-27T11:36:43;4.50;99.90
25208;DHT22;13153;52.316;21.166;2024-01-27T11:39:29;4.50;99.90
25208;DHT22;13153;52.316;21.166;2024-01-27T11:42:05;4.50;99.90
25208;DHT22;13153;52.316;21.166;2024-01-27T11:44:36;4.50;99.90
25208;DHT22;13153;52.316;21.166;2024-01-27T11:47:03;4.50;99.90
25208;DHT22;13153;52.316;21.166;2024-01-27T11:49:30;4.40;99.90
25208;DHT22;13153;52.316;21.166;2024-01-27T11:51:56;4.40;99.90
25208;DHT22;13153;52.316;21.166;2024-01-27T11:54:21;4.40;99.90
25208;DHT22;13153;52.316;21.166;2024-01-27T11:56:47;4.50;99.90
25208;DHT22;13153;52.316;21.166;2024-01-27T11:59:15;4.50;99.90
25208;DHT22;13153;52.316;21.166;2024-01-27T12:01:41;4.50;99.90
25208;DHT22;13153;52.316;21.166;2024-01-27T12:04:07;4.50;99.90
25208;DHT22;13153;52.316;21.166;2024-01-27T12:06:34;4.50;99.90
25208;DHT22;13153;52.316;21.166;2024-01-27T12:09:01;4.50;99.90
25208;DHT22;13153;52.316;21.166;2024-01-27T12:11:27;4.50;99.90
25208;DHT22;13153;52.316;21.166;2024-01-27T12:13:53;4.50;99.90
25208;DHT22;13153;52.316;21.166;2024-01-27T12:16:21;4.50;99.90
25208;DHT22;13153;52.316;21.166;2024-01-27T12:18:53;4.50;99.90
25208;DHT22;13153;52.316;21.166;2024-01-27T12:21:22;4.40;99.90
25208;DHT22;13153;52.316;21.166;2024-01-27T12:24:15;4.40;99.90
25208;DHT22;13153;52.316;21.166;2024-01-27T12:26:42;4.40;99.90
25208;DHT22;13153;52.316;21.166;2024-01-27T12:29:08;4.40;99.90
25208;DHT22;13153;52.316;21.166;2024-01-27T12:31:33;4.40;99.90
25208;DHT22;13153;52.316;21.166;2024-01-27T12:33:59;4.50;99.90
25208;DHT22;13153;52.316;21.166;2024-01-27T12:36:25;4.50;99.90
25208;DHT22;13153;52.316;21.166;2024-01-27T12:39:00;4.50;99.90
25208;DHT22;13153;52.316;21.166;2024-01-27T12:41:44;4.50;99.90
25208;DHT22;13153;52.316;21.166;2024-01-27T12:44:10;4.50;99.90
25208;DHT22;13153;52.316;21.166;2024-01-27T12:46:36;4.50;99.90
25208;DHT22;13153;52.316;21.166;2024-01-27T12:49:02;4.60;99.90
25208;DHT22;13153;52.316;21.166;2024-01-27T12:51:28;4.60;99.90
25208;DHT22;13153;52.316;21.166;2024-01-27T12:53:54;4.50;99.90
25208;DHT22;13153;52.316;21.166;2024-01-27T12:56:20;4.40;99.90
25208;DHT22;13153;52.316;21.166;2024-01-27T12:58:46;4.40;99.90
25208;DHT22;13153;52.316;21.166;2024-01-27T13:01:12;4.40;99.90
25208;DHT22;13153;52.316;21.166;2024-01-27T13:03:37;4.50;99.90
25208;DHT22;13153;52.316;21.166;2024-01-27T13:06:03;4.60;99.90
25208;DHT22;13153;52.316;21.166;2024-01-27T13:08:30;4.50;99.90
25208;DHT22;13153;52.316;21.166;2024-01-27T13:10:56;4.50;99.90
25208;DHT22;13153;52.316;21.166;2024-01-27T13:13:21;4.50;99.90
25208;DHT22;13153;52.316;21.166;2024-01-27T13:15:47;4.50;99.90
25208;DHT22;13153;52.316;21.166;2024-01-27T13:18:13;4.50;99.90
25208;DHT22;13153;52.316;21.166;2024-01-27T13:20:39;4.50;99.90
25208;DHT22;13153;52.316;21.166;2024-01-27T13:23:06;4.60;99.90
25208;DHT22;13153;52.316;21.166;2024-01-27T13:25:32;4.60;99.90
25208;DHT22;13153;52.316;21.166;2024-01-27T13:27:58;4.70;99.90
25208;DHT22;13153;52.316;21.166;2024-01-27T13:30:24;4.70;99.90
25208;DHT22;13153;52.316;21.166;2024-01-27T13:32:49;4.70;99.90
25208;DHT22;13153;52.316;21.166;2024-01-27T13:35:15;4.70;99.90
25208;DHT22;13153;52.316;21.166;2024-01-27T13:37:41;4.70;99.90
25208;DHT22;13153;52.316;21.166;2024-01-27T13:40:07;4.70;99.90
25208;DHT22;13153;52.316;21.166;2024-01-27T13:42:35;4.70;99.90
25208;DHT22;13153;52.316;21.166;2024-01-27T13:45:01;4.60;99.90
25208;DHT22;13153;52.316;21.166;2024-01-27T13:47:27;4.60;99.90
25208;DHT22;13153;52.316;21.166;2024-01-27T13:49:54;4.60;99.90
25208;DHT22;13153;52.316;21.166;2024-01-27T13:52:19;4.60;99.90
25208;DHT22;13153;52.316;21.166;2024-01-27T13:54:45;4.60;99.90
25208;DHT22;13153;52.316;21.166;2024-01-27T13:57:11;4.60;99.90
25208;DHT22;13153;52.316;21.166;2024-01-27T13:59:37;4.60;99.90
25208;DHT22;13153;52.316;21.166;2024-01-27T14:02:03;4.70;99.90
25208;DHT22;13153;52.316;21.166;2024-01-27T14:04:29;4.60;99.90
25208;DHT22;13153;52.316;21.166;2024-01-27T14:06:55;4.60;99.90
25208;DHT22;13153;52.316;21.166;2024-01-27T14:09:28;4.60;99.90
25208;DHT22;13153;52.316;21.166;2024-01-27T14:11:54;4.60;99.90
25208;DHT22;13153;52.316;21.166;2024-01-27T14:14:19;4.60;99.90
25208;DHT22;13153;52.316;21.166;2024-01-27T14:16:46;4.60;99.90
25208;DHT22;13153;52.316;21.166;2024-01-27T14:19:13;4.50;99.90
25208;DHT22;13153;52.316;21.166;2024-01-27T14:21:38;4.50;99.90
25208;DHT22;13153;52.316;21.166;2024-01-27T14:24:06;4.50;99.90
25208;DHT22;13153;52.316;21.166;2024-01-27T14:26:33;4.50;99.90
25208;DHT22;13153;52.316;21.166;2024-01-27T14:28:59;4.50;99.90
25208;DHT22;13153;52.316;21.166;2024-01-27T14:31:25;4.40;99.90
25208;DHT22;13153;52.316;21.166;2024-01-27T14:33:51;4.40;99.90
25208;DHT22;13153;52.316;21.166;2024-01-27T14:36:17;4.40;99.90
25208;DHT22;13153;52.316;21.166;2024-01-27T14:38:43;4.40;99.90
25208;DHT22;13153;52.316;21.166;2024-01-27T14:41:09;4.40;99.90
25208;DHT22;13153;52.316;21.166;2024-01-27T14:43:38;4.30;99.90
25208;DHT22;13153;52.316;21.166;2024-01-27T14:46:04;4.30;99.90
25208;DHT22;13153;52.316;21.166;2024-01-27T14:48:31;4.30;99.90
25208;DHT22;13153;52.316;21.166;2024-01-27T14:50:57;4.30;99.90
25208;DHT22;13153;52.316;21.166;2024-01-27T14:53:28;4.30;99.90
25208;DHT22;13153;52.316;21.166;2024-01-27T14:55:55;4.40;99.90
25208;DHT22;13153;52.316;21.166;2024-01-27T14:58:21;4.30;99.90
25208;DHT22;13153;52.316;21.166;2024-01-27T15:00:48;4.30;99.90
25208;DHT22;13153;52.316;21.166;2024-01-27T15:03:19;4.20;99.90
25208;DHT22;13153;52.316;21.166;2024-01-27T15:05:46;4.20;99.90
25208;DHT22;13153;52.316;21.166;2024-01-27T15:08:12;4.30;99.90
25208;DHT22;13153;52.316;21.166;2024-01-27T15:10:38;4.30;99.90
25208;DHT22;13153;52.316;21.166;2024-01-27T15:13:09;4.20;99.90
25208;DHT22;13153;52.316;21.166;2024-01-27T15:15:38;4.30;99.90
25208;DHT22;13153;52.316;21.166;2024-01-27T15:18:07;4.20;99.90
25208;DHT22;13153;52.316;21.166;2024-01-27T15:20:35;4.30;99.90
25208;DHT22;13153;52.316;21.166;2024-01-27T15:23:02;4.20;99.90
25208;DHT22;13153;52.316;21.166;2024-01-27T15:25:27;4.20;99.90
25208;DHT22;13153;52.316;21.166;2024-01-27T15:27:53;4.10;99.90